Time;durP1;ratioP1;P1;durP2;ratioP2;P2;SDS_P1;SDS_P2;PMS_P1;PMS_P2;Temp;Humidity;BMP_temperature;BMP_pressure;BME280_temperature;BME280_humidity;BME280_pressure;Samples;Min_cycle;Max_cycle;Signal;HPM_P1;HPM_P2
2022/11/21 00:00:22;;;;;;;106.77;43.33;;;2.60;99.90;;;;;;5075392;28;20185;-65
2022/11/21 00:02:48;;;;;;;114.70;45.43;;;2.60;99.90;;;;;;5073517;28;20206;-66
2022/11/21 00:05:14;;;;;;;114.40;46.63;;;2.70;99.90;;;;;;5074837;28;20193;-66
2022/11/21 00:07:39;;;;;;;103.53;43.63;;;2.60;99.90;;;;;;5073923;28;20177;-65
2022/11/21 00:10:05;;;;;;;92.37;41.33;;;2.60;99.90;;;;;;5075227;28;20253;-69
2022/11/21 00:12:31;;;;;;;84.60;40.70;;;2.50;99.90;;;;;;5074516;28;20197;-65
2022/11/21 00:14:57;;;;;;;80.50;38.23;;;2.50;99.90;;;;;;5074594;28;20205;-65
2022/11/21 00:17:23;;;;;;;88.70;38.83;;;2.50;99.90;;;;;;5074759;28;20687;-66
2022/11/21 00:19:48;;;;;;;103.47;44.33;;;2.50;99.90;;;;;;5074538;28;20685;-65
2022/11/21 00:22:14;;;;;;;108.57;45.87;;;2.50;99.90;;;;;;5072987;28;20182;-65
2022/11/21 00:24:40;;;;;;;112.53;46.97;;;2.50;99.90;;;;;;5074465;28;20654;-65
2022/11/21 00:27:05;;;;;;;102.03;45.27;;;2.40;99.90;;;;;;5073225;28;20188;-65
2022/11/21 00:29:31;;;;;;;92.17;40.67;;;2.40;99.90;;;;;;5074385;28;20205;-65
2022/11/21 00:31:57;;;;;;;87.97;39.73;;;2.40;99.90;;;;;;5074572;28;20203;-65
2022/11/21 00:34:23;;;;;;;78.87;36.53;;;2.30;99.90;;;;;;5074261;28;20177;-65
2022/11/21 00:36:48;;;;;;;83.37;37.03;;;2.30;99.90;;;;;;5074466;28;20657;-65
2022/11/21 00:39:14;;;;;;;77.97;36.40;;;2.20;99.90;;;;;;5074308;28;20198;-65
2022/11/21 00:41:40;;;;;;;61.73;33.07;;;2.20;99.90;;;;;;5072935;28;20205;-65
2022/11/21 00:44:06;;;;;;;68.07;34.10;;;2.20;99.90;;;;;;5074199;28;20201;-65
2022/11/21 00:46:32;;;;;;;69.40;32.43;;;2.10;99.90;;;;;;5074145;28;20197;-66
2022/11/21 00:48:57;;;;;;;71.07;33.90;;;2.10;99.90;;;;;;5073967;28;20621;-65
2022/11/21 00:51:23;;;;;;;66.23;32.87;;;2.10;99.90;;;;;;5072813;28;20178;-66
2022/11/21 00:53:49;;;;;;;62.10;31.97;;;2.10;99.90;;;;;;5074001;28;20638;-65
2022/11/21 00:56:15;;;;;;;65.80;32.67;;;2.00;99.90;;;;;;5072642;28;20237;-65
2022/11/21 00:58:41;;;;;;;68.83;32.60;;;2.00;99.90;;;;;;5073887;28;20218;-66
2022/11/21 01:01:10;;;;;;;70.53;33.70;;;2.00;99.90;;;;;;5074482;28;20641;-65
2022/11/21 01:03:36;;;;;;;67.33;32.27;;;1.80;99.90;;;;;;5072587;28;20174;-65
2022/11/21 01:06:04;;;;;;;70.60;33.00;;;1.80;99.90;;;;;;5072600;28;20204;-65
2022/11/21 01:08:30;;;;;;;70.80;32.73;;;1.80;99.90;;;;;;5073703;28;20657;-66
2022/11/21 01:10:56;;;;;;;70.93;32.20;;;1.80;99.90;;;;;;5074601;28;20178;-65
2022/11/21 01:13:21;;;;;;;67.53;33.03;;;1.80;99.90;;;;;;5072346;28;20193;-66
2022/11/21 01:15:47;;;;;;;69.70;32.07;;;1.80;99.90;;;;;;5073806;28;20205;-65
2022/11/21 01:18:13;;;;;;;53.00;27.20;;;1.80;99.90;;;;;;5072229;28;20281;-66
2022/11/21 01:20:39;;;;;;;44.37;25.00;;;1.80;99.90;;;;;;5073600;28;20154;-66
2022/11/21 01:23:05;;;;;;;50.60;26.13;;;1.80;99.90;;;;;;5073704;28;20666;-65
2022/11/21 01:25:33;;;;;;;46.17;25.70;;;1.80;99.90;;;;;;5073925;28;20178;-66
2022/11/21 01:27:59;;;;;;;45.23;25.40;;;1.70;99.90;;;;;;5073548;28;20200;-65
2022/11/21 01:30:25;;;;;;;45.97;25.87;;;1.70;99.90;;;;;;5073449;28;20178;-66
2022/11/21 01:32:51;;;;;;;39.97;24.50;;;1.70;99.90;;;;;;5073438;28;20247;-66
2022/11/21 01:35:17;;;;;;;39.10;24.50;;;1.70;99.90;;;;;;5073153;28;20198;-65
2022/11/21 01:37:47;;;;;;;41.07;24.63;;;1.70;99.90;;;;;;5073630;28;20177;-65
2022/11/21 01:40:13;;;;;;;35.83;24.00;;;1.60;99.90;;;;;;5072111;28;20197;-65
2022/11/21 01:43:11;;;;;;;39.57;23.57;;;1.60;99.90;;;;;;5073555;28;20584;-65
2022/11/21 01:45:55;;;;;;;38.30;23.93;;;1.60;99.90;;;;;;5073583;28;20241;-65
2022/11/21 01:48:42;;;;;;;45.33;25.40;;;1.60;99.90;;;;;;5073443;28;20201;-65
2022/11/21 01:51:30;;;;;;;36.77;22.97;;;1.60;99.90;;;;;;5073259;28;20162;-65
2022/11/21 01:54:02;;;;;;;40.33;24.13;;;1.60;99.90;;;;;;5072039;28;20185;-65
2022/11/21 01:56:31;;;;;;;38.50;23.07;;;1.60;99.90;;;;;;5073221;28;20197;-65
2022/11/21 01:59:01;;;;;;;38.50;24.37;;;1.60;99.90;;;;;;5073482;28;20186;-65
2022/11/21 02:01:28;;;;;;;47.33;25.27;;;1.60;99.90;;;;;;5073950;28;20170;-66
2022/11/21 02:03:56;;;;;;;45.63;25.67;;;1.60;99.90;;;;;;5071712;28;20256;-65
2022/11/21 02:06:24;;;;;;;38.07;24.50;;;1.50;99.90;;;;;;5073009;28;20181;-66
2022/11/21 02:08:49;;;;;;;38.30;23.27;;;1.50;99.90;;;;;;5073293;28;20247;-66
2022/11/21 02:11:24;;;;;;;38.73;23.10;;;1.50;99.90;;;;;;5073046;28;20181;-67
2022/11/21 02:13:50;;;;;;;43.03;24.77;;;1.60;99.90;;;;;;5073482;28;20166;-65
2022/11/21 02:16:15;;;;;;;38.80;23.80;;;1.50;99.90;;;;;;5072692;28;20259;-66
2022/11/21 02:18:41;;;;;;;36.03;22.03;;;1.50;99.90;;;;;;5071601;28;20225;-66
2022/11/21 02:21:36;;;;;;;35.43;22.97;;;1.60;99.90;;;;;;5073117;28;20215;-65
2022/11/21 02:24:14;;;;;;;35.97;22.93;;;1.50;99.90;;;;;;5073212;28;20223;-66
2022/11/21 02:26:40;;;;;;;33.07;21.43;;;1.50;99.90;;;;;;5072931;28;20631;-66
2022/11/21 02:29:06;;;;;;;37.17;23.13;;;1.50;99.90;;;;;;5073408;28;20193;-65
2022/11/21 02:31:31;;;;;;;34.17;21.43;;;1.50;99.90;;;;;;5073400;28;20174;-65
2022/11/21 02:33:57;;;;;;;33.83;21.73;;;1.50;99.90;;;;;;5072817;28;20176;-65
2022/11/21 02:36:43;;;;;;;37.37;22.20;;;1.50;99.90;;;;;;5072861;28;20198;-65
2022/11/21 02:39:25;;;;;;;37.30;23.50;;;1.50;99.90;;;;;;5072950;28;20193;-65
2022/11/21 02:42:11;;;;;;;31.87;21.80;;;1.60;99.90;;;;;;5072928;28;20199;-66
2022/11/21 02:44:56;;;;;;;35.27;22.00;;;1.60;99.90;;;;;;5073806;28;20204;-65
2022/11/21 02:47:23;;;;;;;29.73;21.67;;;1.60;99.90;;;;;;5076778;28;20162;-65
2022/11/21 02:49:58;;;;;;;35.57;22.63;;;1.50;99.90;;;;;;5076199;28;20186;-66
2022/11/21 02:52:24;;;;;;;37.13;21.77;;;1.60;99.90;;;;;;5076736;28;20162;-65
2022/11/21 02:54:50;;;;;;;32.93;22.37;;;1.60;99.90;;;;;;5074945;28;20204;-65
2022/11/21 02:57:16;;;;;;;31.30;21.57;;;1.50;99.90;;;;;;5076216;28;20177;-66
2022/11/21 02:59:41;;;;;;;32.43;21.63;;;1.60;99.90;;;;;;5076494;28;20678;-66
2022/11/21 03:02:07;;;;;;;31.80;21.13;;;1.60;99.90;;;;;;5074907;28;20517;-66
2022/11/21 03:04:33;;;;;;;30.63;20.57;;;1.60;99.90;;;;;;5075944;28;20208;-69
2022/11/21 03:06:58;;;;;;;34.07;21.93;;;1.60;99.90;;;;;;5076555;28;20201;-69
2022/11/21 03:09:24;;;;;;;31.00;20.10;;;1.60;99.90;;;;;;5074805;28;20209;-69
2022/11/21 03:11:50;;;;;;;33.07;21.40;;;1.60;99.90;;;;;;5076108;28;20185;-69
2022/11/21 03:14:15;;;;;;;29.20;20.67;;;1.50;99.90;;;;;;5076246;28;20189;-69
2022/11/21 03:16:41;;;;;;;34.67;22.00;;;1.50;99.90;;;;;;5076154;28;20178;-69
2022/11/21 03:19:07;;;;;;;29.80;20.53;;;1.50;99.90;;;;;;5075781;28;20197;-69
2022/11/21 03:21:32;;;;;;;33.20;21.83;;;1.50;99.90;;;;;;5078224;28;20177;-70
2022/11/21 03:23:58;;;;;;;31.60;21.03;;;1.50;99.90;;;;;;5079046;28;20173;-69
2022/11/21 03:26:24;;;;;;;29.37;21.57;;;1.50;99.90;;;;;;5082503;28;20331;-69
2022/11/21 03:28:50;;;;;;;32.13;21.33;;;1.50;99.90;;;;;;5077096;28;20198;-69
2022/11/21 03:31:15;;;;;;;32.50;21.47;;;1.50;99.90;;;;;;5076125;28;20651;-69
2022/11/21 03:33:41;;;;;;;36.10;21.97;;;1.50;99.90;;;;;;5076040;28;20237;-69
2022/11/21 03:36:07;;;;;;;35.57;21.87;;;1.50;99.90;;;;;;5075629;28;20251;-69
2022/11/21 03:38:32;;;;;;;32.70;21.37;;;1.50;99.90;;;;;;5075597;28;20205;-70
2022/11/21 03:41:28;;;;;;;38.47;22.93;;;1.60;99.90;;;;;;5075496;28;20170;-69
2022/11/21 03:43:51;;;;;;;30.90;21.30;;;1.60;99.90;;;;;;5075398;28;20174;-70
2022/11/21 03:46:17;;;;;;;37.20;22.23;;;1.60;99.90;;;;;;5075298;28;20669;-69
2022/11/21 03:48:42;;;;;;;36.93;22.83;;;1.70;99.90;;;;;;5075321;28;20204;-69
2022/11/21 03:51:08;;;;;;;33.07;22.30;;;1.70;99.90;;;;;;5074338;28;20182;-69
2022/11/21 03:53:34;;;;;;;36.67;22.30;;;1.60;99.90;;;;;;5075335;28;20177;-68
2022/11/21 03:55:59;;;;;;;36.83;22.93;;;1.60;99.90;;;;;;5074534;28;20197;-69
2022/11/21 03:58:25;;;;;;;37.03;22.27;;;1.60;99.90;;;;;;5075214;28;20735;-68
2022/11/21 04:00:51;;;;;;;42.77;24.27;;;1.60;99.90;;;;;;5075337;28;20173;-69
2022/11/21 04:03:17;;;;;;;38.83;22.97;;;1.60;99.90;;;;;;5074817;28;20643;-69
2022/11/21 04:05:43;;;;;;;44.30;25.30;;;1.70;99.90;;;;;;5075079;28;20651;-69
2022/11/21 04:08:09;;;;;;;39.63;23.67;;;1.70;99.90;;;;;;5075179;28;20197;-69
2022/11/21 04:10:35;;;;;;;43.20;24.30;;;1.70;99.90;;;;;;5074748;28;20182;-69
2022/11/21 04:13:00;;;;;;;38.23;22.93;;;1.70;99.90;;;;;;5074760;28;20201;-69
2022/11/21 04:15:26;;;;;;;48.47;24.90;;;1.70;99.90;;;;;;5074780;28;20189;-69
2022/11/21 04:17:52;;;;;;;41.33;24.20;;;1.70;99.90;;;;;;5074528;28;20177;-68
2022/11/21 04:20:18;;;;;;;49.60;26.93;;;1.70;99.90;;;;;;5074785;28;20166;-68
2022/11/21 04:22:43;;;;;;;51.17;28.50;;;1.70;99.90;;;;;;5074688;28;20166;-68
2022/11/21 04:25:09;;;;;;;41.87;24.40;;;1.70;99.90;;;;;;5074612;28;20169;-68
2022/11/21 04:27:35;;;;;;;46.33;26.60;;;1.70;99.90;;;;;;5074476;28;20178;-69
2022/11/21 04:30:01;;;;;;;47.87;26.23;;;1.70;99.90;;;;;;5074358;28;20217;-68
2022/11/21 04:32:27;;;;;;;53.27;26.73;;;1.70;99.90;;;;;;5073152;28;20264;-68
2022/11/21 04:34:52;;;;;;;45.97;26.80;;;1.80;99.90;;;;;;5074319;28;20323;-68
2022/11/21 04:37:18;;;;;;;44.87;25.63;;;1.80;99.90;;;;;;5074374;28;20169;-68
2022/11/21 04:39:44;;;;;;;56.47;27.33;;;1.80;99.90;;;;;;5074375;28;20222;-69
2022/11/21 04:42:09;;;;;;;51.00;26.53;;;1.80;99.90;;;;;;5074326;28;20185;-68
2022/11/21 04:44:35;;;;;;;53.23;28.97;;;1.80;99.90;;;;;;5074089;28;20174;-68
2022/11/21 04:47:01;;;;;;;56.33;28.53;;;1.80;99.90;;;;;;5074191;28;20232;-68
2022/11/21 04:49:26;;;;;;;65.87;30.33;;;1.80;99.90;;;;;;5073962;28;20203;-68
2022/11/21 04:51:52;;;;;;;52.80;28.33;;;1.70;99.90;;;;;;5074805;28;20158;-68
2022/11/21 04:54:18;;;;;;;58.23;28.37;;;1.70;99.90;;;;;;5074449;28;20500;-68
2022/11/21 04:56:43;;;;;;;55.43;27.50;;;1.70;99.90;;;;;;5072784;28;20180;-68
2022/11/21 04:59:11;;;;;;;58.70;30.23;;;1.70;99.90;;;;;;5072628;28;20251;-68
2022/11/21 05:01:37;;;;;;;60.07;28.17;;;1.60;99.90;;;;;;5073846;28;20169;-68
2022/11/21 05:04:03;;;;;;;55.30;28.17;;;1.60;99.90;;;;;;5072429;28;20196;-69
2022/11/21 05:06:29;;;;;;;62.27;29.73;;;1.60;99.90;;;;;;5073778;28;20182;-69
2022/11/21 05:08:54;;;;;;;60.27;28.60;;;1.60;99.90;;;;;;5073060;28;20258;-68
2022/11/21 05:14:05;;;;;;;63.93;29.93;;;1.60;99.90;;;;;;5074067;28;20351;-70
2022/11/21 05:16:33;;;;;;;52.13;28.97;;;1.60;99.90;;;;;;5073569;28;20673;-68
2022/11/21 05:18:59;;;;;;;60.57;29.83;;;1.60;99.90;;;;;;5073811;28;20194;-68
2022/11/21 05:21:25;;;;;;;64.50;28.43;;;1.60;99.90;;;;;;5073623;28;20170;-68
2022/11/21 05:23:50;;;;;;;57.83;29.10;;;1.60;99.90;;;;;;5074048;28;20200;-68
2022/11/21 05:26:16;;;;;;;60.00;30.67;;;1.60;99.90;;;;;;5073650;28;20177;-68
2022/11/21 05:28:42;;;;;;;68.37;30.47;;;1.60;99.90;;;;;;5073468;28;20270;-68
2022/11/21 05:31:08;;;;;;;71.23;31.07;;;1.60;99.90;;;;;;5074138;28;20184;-68
2022/11/21 05:33:33;;;;;;;72.13;30.47;;;1.60;99.90;;;;;;5073211;28;20676;-69
2022/11/21 05:35:59;;;;;;;71.27;31.80;;;1.60;99.90;;;;;;5073302;28;20205;-69
2022/11/21 05:38:25;;;;;;;69.77;30.53;;;1.60;99.90;;;;;;5073334;28;20202;-69
2022/11/21 05:40:52;;;;;;;74.67;31.57;;;1.60;99.90;;;;;;5073303;28;20170;-68
2022/11/21 05:46:02;;;;;;;64.87;29.83;;;1.60;99.90;;;;;;5073442;28;20215;-69
2022/11/21 05:48:27;;;;;;;76.83;33.60;;;1.60;99.90;;;;;;5073007;28;20221;-69
2022/11/21 05:50:53;;;;;;;70.30;30.50;;;1.60;99.90;;;;;;5073230;28;20178;-68
2022/11/21 05:53:19;;;;;;;77.53;32.83;;;1.60;99.90;;;;;;5073664;28;20188;-68
2022/11/21 05:55:45;;;;;;;66.70;29.47;;;1.60;99.90;;;;;;5073071;28;20202;-69
2022/11/21 05:58:11;;;;;;;65.10;30.10;;;1.60;99.90;;;;;;5073015;28;20197;-68
2022/11/21 06:00:38;;;;;;;73.93;32.00;;;1.60;99.90;;;;;;5071770;28;20197;-68
2022/11/21 06:05:48;;;;;;;71.90;30.00;;;1.70;99.90;;;;;;5073623;28;20257;-68
2022/11/21 06:08:14;;;;;;;79.33;31.77;;;1.70;99.90;;;;;;5073471;28;20233;-68
2022/11/21 06:10:40;;;;;;;74.17;30.37;;;1.70;99.90;;;;;;5073274;28;20167;-69
2022/11/21 06:13:20;;;;;;;78.87;31.37;;;1.70;99.90;;;;;;5072795;28;20276;-68
2022/11/21 06:15:58;;;;;;;73.67;30.97;;;1.70;99.90;;;;;;5073176;28;20197;-68
2022/11/21 06:18:24;;;;;;;72.53;28.77;;;1.70;99.90;;;;;;5072948;28;20537;-68
2022/11/21 06:20:50;;;;;;;69.30;29.83;;;1.80;99.90;;;;;;5076128;28;20189;-68
2022/11/21 06:23:16;;;;;;;60.07;27.87;;;1.80;99.90;;;;;;5077145;28;20162;-68
2022/11/21 06:25:43;;;;;;;64.63;30.80;;;1.80;99.90;;;;;;5075474;28;20736;-68
2022/11/21 06:28:09;;;;;;;62.77;27.50;;;1.80;99.90;;;;;;5075277;28;20565;-68
2022/11/21 06:30:35;;;;;;;71.93;29.47;;;1.90;99.90;;;;;;5075327;28;20177;-68
2022/11/21 06:33:05;;;;;;;69.57;30.73;;;1.90;99.90;;;;;;5076459;28;20244;-71
2022/11/21 06:35:31;;;;;;;80.53;31.27;;;1.90;99.90;;;;;;5076663;28;20201;-72
2022/11/21 06:37:57;;;;;;;74.87;31.03;;;1.90;99.90;;;;;;5075209;28;20246;-72
2022/11/21 06:40:24;;;;;;;74.77;29.77;;;1.90;99.90;;;;;;5076527;28;20240;-72
2022/11/21 06:42:49;;;;;;;72.33;30.77;;;1.90;99.90;;;;;;5076425;28;20646;-72
2022/11/21 06:45:15;;;;;;;91.40;32.30;;;2.00;99.90;;;;;;5075081;28;20185;-69
2022/11/21 06:47:41;;;;;;;91.27;32.60;;;1.90;99.90;;;;;;5075065;28;20193;-69
2022/11/21 06:50:07;;;;;;;77.17;32.00;;;1.90;99.90;;;;;;5076090;28;20194;-69
2022/11/21 06:52:34;;;;;;;78.10;30.20;;;1.90;99.90;;;;;;5076120;28;20169;-68
2022/11/21 06:55:00;;;;;;;64.47;28.87;;;1.90;99.90;;;;;;5076137;28;20243;-68
2022/11/21 06:57:25;;;;;;;75.37;31.13;;;1.90;99.90;;;;;;5076384;28;20174;-68
2022/11/21 06:59:51;;;;;;;89.83;29.97;;;1.90;99.90;;;;;;5074748;28;20685;-68
2022/11/21 07:02:17;;;;;;;73.47;29.17;;;1.90;99.90;;;;;;5076132;28;20587;-68
2022/11/21 07:04:42;;;;;;;66.80;28.57;;;1.90;99.90;;;;;;5074595;28;20185;-68
2022/11/21 07:07:08;;;;;;;64.57;28.33;;;1.90;99.90;;;;;;5075947;28;20174;-68
2022/11/21 07:09:34;;;;;;;68.87;29.63;;;1.90;99.90;;;;;;5076015;28;20228;-68
2022/11/21 07:13:20;;;;;;;71.70;30.37;;;1.90;99.90;;;;;;5075731;28;20654;-68
2022/11/21 07:14:46;;;;;;;68.17;28.40;;;2.00;99.90;;;;;;5075619;28;20284;-68
2022/11/21 07:17:12;;;;;;;66.57;27.90;;;2.00;99.90;;;;;;5076063;28;20173;-68
2022/11/21 07:19:39;;;;;;;63.97;27.67;;;2.10;99.90;;;;;;5075568;28;20200;-68
2022/11/21 07:22:05;;;;;;;68.30;28.37;;;2.10;99.90;;;;;;5074509;28;20178;-68
2022/11/21 07:24:31;;;;;;;60.70;26.97;;;2.10;99.90;;;;;;5075919;28;20181;-69
2022/11/21 07:26:56;;;;;;;57.73;26.90;;;2.10;99.90;;;;;;5075728;28;20166;-68
2022/11/21 07:29:22;;;;;;;69.67;30.27;;;2.10;99.90;;;;;;5075485;28;20186;-68
2022/11/21 07:31:48;;;;;;;68.67;29.63;;;2.20;99.90;;;;;;5074734;28;20228;-69
2022/11/21 07:34:13;;;;;;;71.40;27.13;;;2.20;99.90;;;;;;5074043;28;20174;-68
2022/11/21 07:36:39;;;;;;;81.83;29.90;;;2.20;99.90;;;;;;5075670;28;20240;-69
2022/11/21 07:39:05;;;;;;;82.27;31.10;;;2.20;99.90;;;;;;5075539;28;20640;-68
2022/11/21 07:41:31;;;;;;;78.83;28.57;;;2.20;99.90;;;;;;5075345;28;20177;-68
2022/11/21 07:43:57;;;;;;;85.77;31.63;;;2.20;99.90;;;;;;5073917;28;20265;-69
2022/11/21 07:46:23;;;;;;;71.97;29.43;;;2.20;99.90;;;;;;5075144;28;20186;-69
2022/11/21 07:48:49;;;;;;;59.50;29.13;;;2.20;99.90;;;;;;5073487;28;20202;-69
2022/11/21 07:51:14;;;;;;;63.77;28.57;;;2.20;99.90;;;;;;5074861;28;20531;-69
2022/11/21 07:53:40;;;;;;;85.47;30.53;;;2.30;99.90;;;;;;5075356;28;20174;-69
2022/11/21 07:56:08;;;;;;;54.83;25.90;;;2.20;99.90;;;;;;5075171;28;20197;-69
2022/11/21 07:58:34;;;;;;;62.77;26.80;;;2.20;99.90;;;;;;5073722;28;20197;-68
2022/11/21 08:01:04;;;;;;;65.67;27.60;;;2.30;99.90;;;;;;5074955;28;20181;-69
2022/11/21 08:03:31;;;;;;;62.13;26.70;;;2.30;99.90;;;;;;5073499;28;20174;-69
2022/11/21 08:06:02;;;;;;;59.67;28.07;;;2.40;99.90;;;;;;5074771;28;20173;-69
2022/11/21 08:08:27;;;;;;;59.87;27.07;;;2.40;99.90;;;;;;5073596;28;20213;-69
2022/11/21 08:10:53;;;;;;;57.70;26.90;;;2.50;99.90;;;;;;5073465;28;20251;-69
2022/11/21 08:13:19;;;;;;;58.73;27.67;;;2.50;99.90;;;;;;5073535;28;20251;-68
2022/11/21 08:15:44;;;;;;;66.70;30.07;;;2.50;99.90;;;;;;5074624;28;20324;-69
2022/11/21 08:18:17;;;;;;;68.90;29.83;;;2.60;99.90;;;;;;5074532;28;20673;-69
2022/11/21 08:20:43;;;;;;;67.63;28.47;;;2.60;99.90;;;;;;5073483;28;20264;-69
2022/11/21 08:23:09;;;;;;;58.83;27.03;;;2.60;99.90;;;;;;5073293;28;20264;-69
2022/11/21 08:25:40;;;;;;;60.87;28.07;;;2.70;99.90;;;;;;5074808;28;20570;-69
2022/11/21 08:28:07;;;;;;;61.93;27.33;;;2.70;99.90;;;;;;5074774;28;20197;-68
2022/11/21 08:30:34;;;;;;;45.40;24.50;;;2.70;99.90;;;;;;5073205;28;20184;-69
2022/11/21 08:33:00;;;;;;;78.33;31.10;;;2.70;99.90;;;;;;5074434;28;20214;-69
2022/11/21 08:35:27;;;;;;;64.00;28.70;;;2.70;99.90;;;;;;5074095;28;20715;-69
2022/11/21 08:37:59;;;;;;;51.10;26.53;;;2.70;99.90;;;;;;5073054;28;20205;-69
2022/11/21 08:40:27;;;;;;;58.47;26.20;;;2.70;99.90;;;;;;5073027;28;20170;-69
2022/11/21 08:43:06;;;;;;;66.83;27.90;;;2.70;99.90;;;;;;5073991;28;20536;-69
2022/11/21 08:45:33;;;;;;;65.00;28.17;;;2.70;99.90;;;;;;5074473;28;20584;-69
2022/11/21 08:47:59;;;;;;;57.60;25.90;;;2.80;99.90;;;;;;5074022;28;20646;-69
2022/11/21 08:50:26;;;;;;;65.10;30.23;;;2.80;99.90;;;;;;5073847;28;20182;-69
2022/11/21 08:52:57;;;;;;;56.53;25.90;;;2.80;99.90;;;;;;5072651;28;20193;-69
2022/11/21 08:55:23;;;;;;;62.63;29.23;;;2.90;99.90;;;;;;5072597;28;20205;-69
2022/11/21 08:57:49;;;;;;;69.50;30.40;;;3.00;99.90;;;;;;5072543;28;20174;-68
2022/11/21 09:00:15;;;;;;;64.53;29.40;;;3.00;99.90;;;;;;5073892;28;20176;-69
2022/11/21 09:02:40;;;;;;;64.13;28.60;;;3.00;99.90;;;;;;5072628;28;20189;-68
2022/11/21 09:05:07;;;;;;;61.73;27.63;;;3.00;99.90;;;;;;5073644;28;20634;-69
2022/11/21 09:07:32;;;;;;;59.20;28.20;;;3.10;99.90;;;;;;5073740;28;20219;-69
2022/11/21 09:09:58;;;;;;;49.00;25.93;;;3.10;99.90;;;;;;5073664;28;20205;-69
2022/11/21 09:12:24;;;;;;;57.50;26.40;;;3.10;99.90;;;;;;5073610;28;20221;-69
2022/11/21 09:20:18;;;;;;;62.73;28.13;;;3.20;99.90;;;;;;5074548;28;20157;-69
2022/11/21 09:22:44;;;;;;;58.67;27.40;;;3.20;99.90;;;;;;5072435;28;20548;-68
2022/11/21 09:25:09;;;;;;;55.13;26.33;;;3.20;99.90;;;;;;5073584;28;20174;-69
2022/11/21 09:27:35;;;;;;;54.17;26.83;;;3.30;99.90;;;;;;5073739;28;20607;-69
2022/11/21 09:30:01;;;;;;;45.03;23.97;;;3.30;99.90;;;;;;5073984;28;20198;-68
2022/11/21 09:32:26;;;;;;;50.70;25.53;;;3.30;99.90;;;;;;5073413;28;20588;-68
2022/11/21 09:34:52;;;;;;;50.23;25.40;;;3.30;99.90;;;;;;5072013;28;20220;-68
2022/11/21 09:37:18;;;;;;;56.47;27.30;;;3.30;99.90;;;;;;5073684;28;20606;-69
2022/11/21 09:39:43;;;;;;;56.60;26.90;;;3.30;99.90;;;;;;5073333;28;20204;-68
2022/11/21 09:42:32;;;;;;;63.20;29.30;;;3.30;99.90;;;;;;5073631;28;20197;-69
2022/11/21 09:45:03;;;;;;;63.43;28.57;;;3.40;99.90;;;;;;5072267;28;20220;-69
2022/11/21 09:47:36;;;;;;;46.03;24.80;;;3.40;99.90;;;;;;5072038;28;20236;-68
2022/11/21 09:50:04;;;;;;;57.37;27.47;;;3.40;99.90;;;;;;5071812;28;20220;-68
2022/11/21 09:52:42;;;;;;;53.13;27.17;;;3.40;99.90;;;;;;5073492;28;20170;-69
2022/11/21 09:55:34;;;;;;;56.37;26.37;;;3.40;99.90;;;;;;5075520;28;20204;-68
2022/11/21 09:58:03;;;;;;;43.37;24.00;;;3.40;99.90;;;;;;5076445;28;20186;-68
2022/11/21 10:00:29;;;;;;;49.57;25.83;;;3.40;99.90;;;;;;5077520;28;20169;-69
2022/11/21 10:02:55;;;;;;;56.00;27.27;;;3.50;99.90;;;;;;5077433;28;20212;-69
2022/11/21 10:05:44;;;;;;;45.70;24.13;;;3.50;99.90;;;;;;5077232;28;20204;-69
2022/11/21 10:08:41;;;;;;;48.83;26.90;;;3.50;99.90;;;;;;5077808;28;20261;-69
2022/11/21 10:11:26;;;;;;;61.77;27.73;;;3.50;99.90;;;;;;5072876;28;20605;-69
2022/11/21 10:14:06;;;;;;;57.07;26.10;;;3.50;99.90;;;;;;5133626;27;20529;-70
2022/11/21 10:16:44;;;;;;;47.77;25.10;;;3.50;99.90;;;;;;5124951;27;20235;-70
2022/11/21 10:19:22;;;;;;;45.57;23.93;;;3.50;99.90;;;;;;5135555;27;20203;-68
2022/11/21 10:22:15;;;;;;;45.40;26.77;;;3.60;99.90;;;;;;5119141;27;20190;-68
2022/11/21 10:24:52;;;;;;;53.00;27.83;;;3.60;99.90;;;;;;5078735;28;20185;-69
2022/11/21 10:27:33;;;;;;;53.50;27.77;;;3.60;99.90;;;;;;5088241;28;20566;-69
2022/11/21 10:30:04;;;;;;;66.83;30.90;;;3.70;99.90;;;;;;5087713;28;20209;-70
2022/11/21 10:32:40;;;;;;;56.40;28.77;;;3.80;99.90;;;;;;5059859;28;20195;-69
2022/11/21 10:37:51;;;;;;;58.13;28.50;;;3.80;99.90;;;;;;5148220;27;20528;-68
2022/11/21 10:40:37;;;;;;;66.03;29.43;;;3.90;99.90;;;;;;5125722;28;20274;-68
2022/11/21 10:46:03;;;;;;;55.10;27.23;;;4.10;99.90;;;;;;5087093;28;20196;-69
2022/11/21 10:48:29;;;;;;;59.53;28.97;;;4.20;99.90;;;;;;5020104;28;20215;-69
2022/11/21 10:51:41;;;;;;;55.77;29.97;;;4.30;99.90;;;;;;5025289;28;20223;-70
2022/11/21 10:57:06;;;;;;;62.87;30.57;;;4.50;99.90;;;;;;4907192;29;20274;-68
2022/11/21 10:59:32;;;;;;;62.77;29.20;;;4.60;99.90;;;;;;4841527;29;20268;-69
2022/11/21 11:03:32;;;;;;;58.63;29.07;;;4.60;99.90;;;;;;5151331;27;20531;-67
2022/11/21 11:05:58;;;;;;;54.13;27.07;;;4.60;99.90;;;;;;5146262;27;20647;-68
2022/11/21 11:08:26;;;;;;;52.23;29.17;;;4.60;99.90;;;;;;5138128;27;20222;-68
2022/11/21 11:11:13;;;;;;;55.67;27.83;;;4.60;99.90;;;;;;5088949;28;20193;-68
2022/11/21 11:14:11;;;;;;;51.23;27.73;;;4.70;99.90;;;;;;5080845;28;20184;-69
2022/11/21 11:16:43;;;;;;;54.97;28.07;;;4.70;99.90;;;;;;5018488;28;20569;-68
2022/11/21 11:19:12;;;;;;;58.33;27.43;;;4.70;99.90;;;;;;5019525;28;20215;-69
2022/11/21 11:21:38;;;;;;;62.60;29.30;;;4.70;99.90;;;;;;5012379;28;20551;-68
2022/11/21 11:24:09;;;;;;;57.50;28.90;;;4.70;99.90;;;;;;4996739;28;20187;-72
2022/11/21 11:29:29;;;;;;;57.07;29.50;;;4.70;99.90;;;;;;5139779;27;20315;-67
2022/11/21 11:32:05;;;;;;;57.70;29.00;;;4.80;99.90;;;;;;5122287;28;20555;-69
2022/11/21 11:34:38;;;;;;;61.13;30.77;;;4.80;99.90;;;;;;5091666;28;20204;-68
2022/11/21 11:37:18;;;;;;;66.07;31.20;;;4.90;99.90;;;;;;4993297;28;2238064;-68
2022/11/21 11:40:02;;;;;;;60.27;30.10;;;5.00;99.90;;;;;;5050377;28;20810;-68
2022/11/21 11:48:07;;;;;;;54.00;27.93;;;5.30;99.90;;;;;;5050634;28;20252;-68
2022/11/21 11:50:40;;;;;;;59.70;29.07;;;5.40;99.90;;;;;;5032385;28;20253;-68
2022/11/21 11:53:17;;;;;;;70.73;31.60;;;5.50;99.90;;;;;;5050609;28;20165;-68
2022/11/21 11:55:51;;;;;;;73.10;31.20;;;5.50;99.90;;;;;;5050322;28;20155;-68
2022/11/21 11:58:38;;;;;;;58.93;28.53;;;5.60;99.90;;;;;;5032273;28;20726;-68
2022/11/21 12:01:31;;;;;;;65.80;31.27;;;5.60;99.90;;;;;;5050534;28;20221;-68
2022/11/21 12:04:04;;;;;;;60.77;27.60;;;5.50;99.90;;;;;;5050318;28;20163;-68
2022/11/21 12:06:55;;;;;;;68.67;31.03;;;5.50;99.90;;;;;;5050385;28;20162;-68
2022/11/21 12:09:36;;;;;;;68.33;31.37;;;5.50;99.90;;;;;;5050015;28;20738;-68
2022/11/21 12:12:41;;;;;;;75.93;30.97;;;5.40;99.90;;;;;;5049966;28;20171;-68
2022/11/21 12:15:48;;;;;;;60.10;28.30;;;5.40;99.90;;;;;;5032177;28;20647;-68
2022/11/21 12:18:19;;;;;;;55.13;28.03;;;5.50;99.90;;;;;;5047714;28;20613;-68
2022/11/21 12:21:06;;;;;;;63.60;29.53;;;5.60;99.90;;;;;;5049604;28;20175;-68
2022/11/21 12:23:52;;;;;;;67.47;30.50;;;5.70;99.90;;;;;;5050025;28;20159;-68
2022/11/21 12:26:27;;;;;;;67.83;30.77;;;5.80;99.90;;;;;;5031902;28;20220;-69
2022/11/21 12:28:59;;;;;;;57.10;29.10;;;5.80;99.90;;;;;;5049473;28;20206;-69
2022/11/21 12:31:46;;;;;;;63.40;29.63;;;5.80;99.90;;;;;;5049603;28;20254;-69
2022/11/21 12:34:12;;;;;;;57.47;29.20;;;5.80;99.90;;;;;;5031609;28;20171;-69
2022/11/21 12:36:40;;;;;;;56.17;28.17;;;5.80;99.90;;;;;;5049090;28;20255;-68
2022/11/21 12:39:31;;;;;;;57.37;27.93;;;5.90;99.90;;;;;;5042491;28;20252;-67
2022/11/21 12:45:43;;;;;;;56.77;30.87;;;5.80;99.90;;;;;;5028649;28;20608;-67
2022/11/21 12:54:34;;;;;;;63.30;30.50;;;6.00;99.90;;;;;;5035955;28;20170;-68
2022/11/21 12:57:20;;;;;;;56.33;28.70;;;6.10;99.90;;;;;;5036146;28;20160;-68
2022/11/21 13:00:19;;;;;;;55.70;28.27;;;6.10;99.90;;;;;;5035796;28;20195;-68
2022/11/21 13:02:51;;;;;;;53.07;27.17;;;6.20;99.90;;;;;;5036017;28;20612;-68
2022/11/21 13:05:31;;;;;;;61.13;29.43;;;6.20;99.90;;;;;;5035003;28;20582;-65
2022/11/21 13:08:04;;;;;;;50.20;25.90;;;6.20;99.90;;;;;;5035448;28;20289;-65
2022/11/21 13:10:31;;;;;;;47.43;22.67;;;6.20;99.90;;;;;;5036065;28;20160;-65
2022/11/21 13:13:04;;;;;;;39.97;21.60;;;6.20;99.90;;;;;;5035431;28;20713;-65
2022/11/21 13:15:39;;;;;;;32.40;20.20;;;6.20;99.90;;;;;;5034036;28;20186;-65
2022/11/21 13:18:19;;;;;;;30.33;18.73;;;6.30;99.90;;;;;;5035491;28;20159;-65
2022/11/21 13:20:48;;;;;;;35.10;18.63;;;6.40;99.90;;;;;;5035184;28;20186;-65
2022/11/21 13:23:36;;;;;;;33.63;19.67;;;6.40;99.90;;;;;;5035195;28;20198;-65
2022/11/21 13:26:25;;;;;;;35.20;19.47;;;6.40;99.90;;;;;;5033798;28;20657;-65
2022/11/21 13:29:17;;;;;;;32.97;18.23;;;6.30;99.90;;;;;;5034904;28;20215;-68
2022/11/21 13:31:42;;;;;;;29.40;18.20;;;6.30;99.90;;;;;;5033291;28;20191;-68